sensor_id;sensor_type;location;lat;lon;timestamp;pressure;altitude;pressure_sealevel;temperature;humidity
82931;BME280;72705;53.346;10.248;2024-02-28T00:02:04;101973.00;;;3.03;97.78
82931;BME280;72705;53.346;10.248;2024-02-28T00:04:31;101948.16;;;2.87;97.54
82931;BME280;72705;53.346;10.248;2024-02-28T00:06:56;101965.16;;;2.84;96.90
82931;BME280;72705;53.346;10.248;2024-02-28T00:09:21;101944.44;;;2.73;95.82
82931;BME280;72705;53.346;10.248;2024-02-28T00:11:47;101960.66;;;2.69;96.82
82931;BME280;72705;53.346;10.248;2024-02-28T00:14:13;101954.81;;;2.62;98.03
82931;BME280;72705;53.346;10.248;2024-02-28T00:16:42;101967.13;;;2.65;97.73
82931;BME280;72705;53.346;10.248;2024-02-28T00:19:08;101991.78;;;2.84;97.47
82931;BME280;72705;53.346;10.248;2024-02-28T00:21:33;101960.53;;;2.55;97.14
82931;BME280;72705;53.346;10.248;2024-02-28T00:23:59;101951.88;;;2.51;97.64
82931;BME280;72705;53.346;10.248;2024-02-28T00:26:24;101942.13;;;2.34;97.71
82931;BME280;72705;53.346;10.248;2024-02-28T00:28:50;101940.59;;;2.29;97.59
82931;BME280;72705;53.346;10.248;2024-02-28T00:31:15;101951.09;;;2.32;98.01
82931;BME280;72705;53.346;10.248;2024-02-28T00:33:40;101972.31;;;2.51;98.34
82931;BME280;72705;53.346;10.248;2024-02-28T00:36:06;101964.31;;;2.51;98.55
82931;BME280;72705;53.346;10.248;2024-02-28T00:38:31;101970.50;;;2.51;98.95
82931;BME280;72705;53.346;10.248;2024-02-28T00:40:57;101960.25;;;2.43;99.05
82931;BME280;72705;53.346;10.248;2024-02-28T00:43:22;101943.38;;;2.27;99.74
82931;BME280;72705;53.346;10.248;2024-02-28T00:45:48;101947.75;;;2.28;98.98
82931;BME280;72705;53.346;10.248;2024-02-28T00:48:14;101955.31;;;2.36;99.75
82931;BME280;72705;53.346;10.248;2024-02-28T00:50:40;101950.94;;;2.35;98.85
82931;BME280;72705;53.346;10.248;2024-02-28T00:53:05;101998.06;;;2.50;98.63
82931;BME280;72705;53.346;10.248;2024-02-28T00:55:31;101991.41;;;2.41;98.52
82931;BME280;72705;53.346;10.248;2024-02-28T00:57:56;101893.78;;;1.75;98.12
82931;BME280;72705;53.346;10.248;2024-02-28T01:00:21;101941.50;;;1.95;98.51
82931;BME280;72705;53.346;10.248;2024-02-28T01:02:47;101936.81;;;2.00;98.77
82931;BME280;72705;53.346;10.248;2024-02-28T01:05:12;101958.88;;;2.19;98.78
82931;BME280;72705;53.346;10.248;2024-02-28T01:07:38;101918.34;;;1.80;98.12
82931;BME280;72705;53.346;10.248;2024-02-28T01:10:03;101874.88;;;1.63;98.54
82931;BME280;72705;53.346;10.248;2024-02-28T01:12:29;101911.00;;;1.85;98.35
82931;BME280;72705;53.346;10.248;2024-02-28T01:14:54;101919.69;;;1.71;97.91
82931;BME280;72705;53.346;10.248;2024-02-28T01:17:20;101950.09;;;1.83;99.23
82931;BME280;72705;53.346;10.248;2024-02-28T01:19:45;101937.28;;;1.91;99.02
82931;BME280;72705;53.346;10.248;2024-02-28T01:22:10;101919.69;;;1.71;98.97
82931;BME280;72705;53.346;10.248;2024-02-28T01:24:36;101943.31;;;1.94;98.85
82931;BME280;72705;53.346;10.248;2024-02-28T01:27:02;101961.69;;;1.99;98.99
82931;BME280;72705;53.346;10.248;2024-02-28T01:29:28;101969.03;;;1.94;98.93
82931;BME280;72705;53.346;10.248;2024-02-28T01:31:53;101936.63;;;1.69;98.32
82931;BME280;72705;53.346;10.248;2024-02-28T01:34:19;101942.50;;;1.75;98.81
82931;BME280;72705;53.346;10.248;2024-02-28T01:36:44;101941.75;;;1.54;99.41
82931;BME280;72705;53.346;10.248;2024-02-28T01:39:10;101947.75;;;1.59;100.00
82931;BME280;72705;53.346;10.248;2024-02-28T01:41:35;101978.00;;;1.74;99.68
82931;BME280;72705;53.346;10.248;2024-02-28T01:44:01;101942.44;;;1.59;100.00
82931;BME280;72705;53.346;10.248;2024-02-28T01:46:27;101950.56;;;1.74;100.00
82931;BME280;72705;53.346;10.248;2024-02-28T01:48:54;101938.03;;;1.58;99.86
82931;BME280;72705;53.346;10.248;2024-02-28T01:51:22;101968.16;;;1.76;100.00
82931;BME280;72705;53.346;10.248;2024-02-28T01:53:50;101957.03;;;1.68;100.00
82931;BME280;72705;53.346;10.248;2024-02-28T01:56:16;101958.06;;;1.66;100.00
82931;BME280;72705;53.346;10.248;2024-02-28T01:58:47;101953.69;;;1.65;99.43
82931;BME280;72705;53.346;10.248;2024-02-28T02:01:16;101975.91;;;1.81;100.00
82931;BME280;72705;53.346;10.248;2024-02-28T02:03:43;101931.22;;;1.53;99.72
82931;BME280;72705;53.346;10.248;2024-02-28T02:06:09;101953.69;;;1.65;99.69
82931;BME280;72705;53.346;10.248;2024-02-28T02:08:34;101945.41;;;1.71;99.46
82931;BME280;72705;53.346;10.248;2024-02-28T02:11:00;101949.84;;;1.70;99.59
82931;BME280;72705;53.346;10.248;2024-02-28T02:13:25;101917.84;;;1.54;100.00
82931;BME280;72705;53.346;10.248;2024-02-28T02:15:50;101915.19;;;1.54;99.72
82931;BME280;72705;53.346;10.248;2024-02-28T02:18:16;101886.72;;;1.39;99.51
82931;BME280;72705;53.346;10.248;2024-02-28T02:20:44;101960.13;;;1.78;100.00
82931;BME280;72705;53.346;10.248;2024-02-28T02:23:11;101933.41;;;1.62;99.72
82931;BME280;72705;53.346;10.248;2024-02-28T02:25:47;101927.25;;;1.61;100.00
82931;BME280;72705;53.346;10.248;2024-02-28T02:28:13;101933.97;;;1.69;100.00
82931;BME280;72705;53.346;10.248;2024-02-28T02:30:40;101943.28;;;1.60;100.00
82931;BME280;72705;53.346;10.248;2024-02-28T02:33:06;101935.44;;;1.57;100.00
82931;BME280;72705;53.346;10.248;2024-02-28T02:35:33;101908.91;;;1.38;100.00
82931;BME280;72705;53.346;10.248;2024-02-28T02:37:59;101951.81;;;1.67;100.00
82931;BME280;72705;53.346;10.248;2024-02-28T02:40:26;101946.16;;;1.55;99.97
82931;BME280;72705;53.346;10.248;2024-02-28T02:42:51;101950.59;;;1.55;100.00
82931;BME280;72705;53.346;10.248;2024-02-28T02:45:17;101947.47;;;1.47;99.85
82931;BME280;72705;53.346;10.248;2024-02-28T02:47:42;101929.38;;;1.36;100.00
82931;BME280;72705;53.346;10.248;2024-02-28T02:50:11;101933.41;;;1.45;99.23
82931;BME280;72705;53.346;10.248;2024-02-28T02:52:37;101941.00;;;1.52;99.71
82931;BME280;72705;53.346;10.248;2024-02-28T02:55:02;101939.34;;;1.50;100.00
82931;BME280;72705;53.346;10.248;2024-02-28T02:57:28;101949.59;;;1.57;100.00
82931;BME280;72705;53.346;10.248;2024-02-28T02:59:56;101942.72;;;1.53;100.00
82931;BME280;72705;53.346;10.248;2024-02-28T03:02:21;101923.56;;;1.47;100.00
82931;BME280;72705;53.346;10.248;2024-02-28T03:04:47;101915.34;;;1.34;100.00
82931;BME280;72705;53.346;10.248;2024-02-28T03:07:12;101941.41;;;1.62;100.00
82931;BME280;72705;53.346;10.248;2024-02-28T03:09:37;101985.47;;;1.85;100.00
82931;BME280;72705;53.346;10.248;2024-02-28T03:12:04;101970.13;;;1.73;100.00
82931;BME280;72705;53.346;10.248;2024-02-28T03:14:29;101967.59;;;1.70;100.00
82931;BME280;72705;53.346;10.248;2024-02-28T03:16:54;101947.56;;;1.62;100.00
82931;BME280;72705;53.346;10.248;2024-02-28T03:19:20;101924.88;;;1.55;100.00
82931;BME280;72705;53.346;10.248;2024-02-28T03:21:47;101961.28;;;1.89;100.00
82931;BME280;72705;53.346;10.248;2024-02-28T03:24:12;101967.63;;;1.87;100.00
82931;BME280;72705;53.346;10.248;2024-02-28T03:26:37;102002.06;;;1.90;100.00
82931;BME280;72705;53.346;10.248;2024-02-28T03:29:03;101967.06;;;1.80;100.00
82931;BME280;72705;53.346;10.248;2024-02-28T03:31:28;101925.97;;;1.51;100.00
82931;BME280;72705;53.346;10.248;2024-02-28T03:33:54;101932.22;;;1.50;100.00
82931;BME280;72705;53.346;10.248;2024-02-28T03:36:19;101979.03;;;1.72;100.00
82931;BME280;72705;53.346;10.248;2024-02-28T03:38:44;101943.16;;;1.44;100.00
82931;BME280;72705;53.346;10.248;2024-02-28T03:41:10;101976.69;;;1.66;100.00
82931;BME280;72705;53.346;10.248;2024-02-28T03:43:35;101946.63;;;1.46;100.00
82931;BME280;72705;53.346;10.248;2024-02-28T03:46:01;101961.97;;;1.58;100.00
82931;BME280;72705;53.346;10.248;2024-02-28T03:48:26;101882.00;;;1.10;100.00
82931;BME280;72705;53.346;10.248;2024-02-28T03:50:52;101927.81;;;1.32;100.00
82931;BME280;72705;53.346;10.248;2024-02-28T03:53:17;101928.63;;;1.34;100.00
82931;BME280;72705;53.346;10.248;2024-02-28T03:55:42;101938.72;;;1.45;100.00
82931;BME280;72705;53.346;10.248;2024-02-28T03:58:09;101971.81;;;1.74;100.00
82931;BME280;72705;53.346;10.248;2024-02-28T04:00:36;101977.00;;;1.77;100.00
82931;BME280;72705;53.346;10.248;2024-02-28T04:03:02;101950.31;;;1.61;100.00
82931;BME280;72705;53.346;10.248;2024-02-28T04:05:29;101954.06;;;1.57;100.00
82931;BME280;72705;53.346;10.248;2024-02-28T04:07:54;101943.97;;;1.46;100.00
82931;BME280;72705;53.346;10.248;2024-02-28T04:10:20;101992.72;;;1.81;100.00
82931;BME280;72705;53.346;10.248;2024-02-28T04:12:45;101913.72;;;1.30;100.00
82931;BME280;72705;53.346;10.248;2024-02-28T04:15:11;101905.13;;;1.25;100.00
82931;BME280;72705;53.346;10.248;2024-02-28T04:17:38;101987.31;;;1.66;100.00
82931;BME280;72705;53.346;10.248;2024-02-28T04:20:04;101975.25;;;1.58;100.00
82931;BME280;72705;53.346;10.248;2024-02-28T04:22:33;101929.97;;;1.24;100.00
82931;BME280;72705;53.346;10.248;2024-02-28T04:24:58;101951.38;;;1.40;100.00
82931;BME280;72705;53.346;10.248;2024-02-28T04:27:23;102004.03;;;1.68;100.00
82931;BME280;72705;53.346;10.248;2024-02-28T04:29:49;101952.22;;;1.40;100.00
82931;BME280;72705;53.346;10.248;2024-02-28T04:32:14;101939.38;;;1.31;100.00
82931;BME280;72705;53.346;10.248;2024-02-28T04:34:39;101988.53;;;1.58;100.00
82931;BME280;72705;53.346;10.248;2024-02-28T04:37:05;101986.47;;;1.46;100.00
82931;BME280;72705;53.346;10.248;2024-02-28T04:39:30;101981.22;;;1.45;100.00
82931;BME280;72705;53.346;10.248;2024-02-28T04:41:56;102001.03;;;1.56;100.00
82931;BME280;72705;53.346;10.248;2024-02-28T04:44:21;101973.78;;;1.34;100.00
82931;BME280;72705;53.346;10.248;2024-02-28T04:46:46;101973.63;;;1.37;100.00
82931;BME280;72705;53.346;10.248;2024-02-28T04:49:12;101976.91;;;1.42;100.00
82931;BME280;72705;53.346;10.248;2024-02-28T04:51:37;101935.88;;;1.12;100.00
82931;BME280;72705;53.346;10.248;2024-02-28T04:54:03;101940.25;;;1.13;100.00
82931;BME280;72705;53.346;10.248;2024-02-28T04:56:28;101948.00;;;1.17;100.00
82931;BME280;72705;53.346;10.248;2024-02-28T04:58:53;101955.56;;;1.27;100.00
82931;BME280;72705;53.346;10.248;2024-02-28T05:01:19;101978.00;;;1.38;100.00
82931;BME280;72705;53.346;10.248;2024-02-28T05:03:44;101948.97;;;1.16;100.00
82931;BME280;72705;53.346;10.248;2024-02-28T05:06:09;101952.97;;;1.25;100.00
82931;BME280;72705;53.346;10.248;2024-02-28T05:08:37;101983.97;;;1.43;100.00
82931;BME280;72705;53.346;10.248;2024-02-28T05:11:03;101971.75;;;1.39;100.00
82931;BME280;72705;53.346;10.248;2024-02-28T05:13:28;101953.16;;;1.39;100.00
82931;BME280;72705;53.346;10.248;2024-02-28T05:15:53;101970.97;;;1.37;100.00
82931;BME280;72705;53.346;10.248;2024-02-28T05:18:19;101969.34;;;1.35;100.00
82931;BME280;72705;53.346;10.248;2024-02-28T05:20:45;101954.38;;;1.32;100.00
82931;BME280;72705;53.346;10.248;2024-02-28T05:23:10;101965.09;;;1.31;100.00
82931;BME280;72705;53.346;10.248;2024-02-28T05:25:35;101957.03;;;1.32;100.00
82931;BME280;72705;53.346;10.248;2024-02-28T05:28:01;101955.94;;;1.36;100.00
82931;BME280;72705;53.346;10.248;2024-02-28T05:30:26;101991.00;;;1.44;100.00
82931;BME280;72705;53.346;10.248;2024-02-28T05:32:53;101984.13;;;1.40;100.00
82931;BME280;72705;53.346;10.248;2024-02-28T05:35:19;101998.69;;;1.50;100.00
82931;BME280;72705;53.346;10.248;2024-02-28T05:37:44;101968.78;;;1.28;100.00
82931;BME280;72705;53.346;10.248;2024-02-28T05:40:12;102011.53;;;1.59;100.00
82931;BME280;72705;53.346;10.248;2024-02-28T05:42:38;101985.13;;;1.38;100.00
82931;BME280;72705;53.346;10.248;2024-02-28T05:45:05;101970.63;;;1.26;100.00
82931;BME280;72705;53.346;10.248;2024-02-28T05:47:30;101988.69;;;1.37;100.00
82931;BME280;72705;53.346;10.248;2024-02-28T05:49:56;101981.13;;;1.29;100.00
82931;BME280;72705;53.346;10.248;2024-02-28T05:52:23;101984.72;;;1.28;100.00
82931;BME280;72705;53.346;10.248;2024-02-28T05:54:50;102022.97;;;1.43;100.00
82931;BME280;72705;53.346;10.248;2024-02-28T05:57:19;101995.47;;;1.25;100.00
82931;BME280;72705;53.346;10.248;2024-02-28T05:59:44;101998.13;;;1.25;100.00
82931;BME280;72705;53.346;10.248;2024-02-28T06:02:10;102001.81;;;1.23;100.00
82931;BME280;72705;53.346;10.248;2024-02-28T06:04:35;101969.06;;;1.03;100.00
82931;BME280;72705;53.346;10.248;2024-02-28T06:07:00;101908.03;;;0.64;100.00
82931;BME280;72705;53.346;10.248;2024-02-28T06:09:26;101952.25;;;0.84;100.00
82931;BME280;72705;53.346;10.248;2024-02-28T06:11:54;101955.84;;;0.83;100.00
82931;BME280;72705;53.346;10.248;2024-02-28T06:14:20;101998.28;;;1.03;100.00
82931;BME280;72705;53.346;10.248;2024-02-28T06:16:48;102012.25;;;1.07;100.00
82931;BME280;72705;53.346;10.248;2024-02-28T06:19:13;101995.69;;;1.02;100.00
82931;BME280;72705;53.346;10.248;2024-02-28T06:21:39;101963.22;;;0.76;100.00
82931;BME280;72705;53.346;10.248;2024-02-28T06:24:04;102009.88;;;1.01;100.00
82931;BME280;72705;53.346;10.248;2024-02-28T06:26:30;102013.28;;;1.04;100.00
82931;BME280;72705;53.346;10.248;2024-02-28T06:28:57;102006.94;;;1.07;100.00
82931;BME280;72705;53.346;10.248;2024-02-28T06:31:26;102014.28;;;1.02;100.00
82931;BME280;72705;53.346;10.248;2024-02-28T06:33:56;102012.41;;;1.04;100.00
82931;BME280;72705;53.346;10.248;2024-02-28T06:36:22;102006.03;;;1.08;100.00
82931;BME280;72705;53.346;10.248;2024-02-28T06:38:48;102042.34;;;1.26;100.00
82931;BME280;72705;53.346;10.248;2024-02-28T06:41:13;102011.28;;;1.09;100.00
82931;BME280;72705;53.346;10.248;2024-02-28T06:43:38;102007.25;;;1.19;100.00
82931;BME280;72705;53.346;10.248;2024-02-28T06:46:04;102051.25;;;1.44;100.00
82931;BME280;72705;53.346;10.248;2024-02-28T06:48:29;102040.56;;;1.45;100.00
82931;BME280;72705;53.346;10.248;2024-02-28T06:50:55;102053.63;;;1.50;100.00
82931;BME280;72705;53.346;10.248;2024-02-28T06:53:21;101994.59;;;1.25;100.00
82931;BME280;72705;53.346;10.248;2024-02-28T06:55:46;102079.16;;;1.73;100.00
82931;BME280;72705;53.346;10.248;2024-02-28T06:58:14;101978.38;;;1.31;100.00
82931;BME280;72705;53.346;10.248;2024-02-28T07:00:40;102047.88;;;1.78;100.00
82931;BME280;72705;53.346;10.248;2024-02-28T07:03:06;102022.94;;;1.61;100.00
82931;BME280;72705;53.346;10.248;2024-02-28T07:05:32;102008.69;;;1.45;100.00
82931;BME280;72705;53.346;10.248;2024-02-28T07:07:59;102076.84;;;2.01;100.00
82931;BME280;72705;53.346;10.248;2024-02-28T07:10:25;102033.47;;;1.82;100.00
82931;BME280;72705;53.346;10.248;2024-02-28T07:12:50;102034.72;;;1.92;100.00
82931;BME280;72705;53.346;10.248;2024-02-28T07:15:15;102041.78;;;1.93;100.00
82931;BME280;72705;53.346;10.248;2024-02-28T07:17:44;102049.41;;;2.00;100.00
82931;BME280;72705;53.346;10.248;2024-02-28T07:20:10;102063.69;;;1.98;100.00
82931;BME280;72705;53.346;10.248;2024-02-28T07:22:35;102074.38;;;2.15;100.00
82931;BME280;72705;53.346;10.248;2024-02-28T07:25:01;102025.25;;;1.86;100.00
82931;BME280;72705;53.346;10.248;2024-02-28T07:27:26;102007.25;;;1.74;100.00
82931;BME280;72705;53.346;10.248;2024-02-28T07:29:51;102049.63;;;1.96;100.00
82931;BME280;72705;53.346;10.248;2024-02-28T07:32:17;102076.69;;;2.04;100.00
82931;BME280;72705;53.346;10.248;2024-02-28T07:34:42;102067.31;;;1.97;100.00
82931;BME280;72705;53.346;10.248;2024-02-28T07:37:10;102042.69;;;1.75;100.00
82931;BME280;72705;53.346;10.248;2024-02-28T07:39:35;102068.94;;;1.99;100.00
82931;BME280;72705;53.346;10.248;2024-02-28T07:42:00;102009.50;;;1.65;100.00
82931;BME280;72705;53.346;10.248;2024-02-28T07:44:29;102050.56;;;1.95;100.00
82931;BME280;72705;53.346;10.248;2024-02-28T07:46:58;102050.09;;;2.04;100.00
82931;BME280;72705;53.346;10.248;2024-02-28T07:49:26;102044.78;;;2.04;100.00
82931;BME280;72705;53.346;10.248;2024-02-28T07:51:51;102077.69;;;2.37;100.00
82931;BME280;72705;53.346;10.248;2024-02-28T07:54:17;102035.72;;;2.25;100.00
82931;BME280;72705;53.346;10.248;2024-02-28T07:56:43;102057.09;;;2.24;100.00
82931;BME280;72705;53.346;10.248;2024-02-28T07:59:09;102094.84;;;2.49;100.00
82931;BME280;72705;53.346;10.248;2024-02-28T08:01:35;102048.41;;;2.20;100.00
82931;BME280;72705;53.346;10.248;2024-02-28T08:04:04;102054.78;;;2.16;99.86
82931;BME280;72705;53.346;10.248;2024-02-28T08:06:30;102035.00;;;2.04;100.00
82931;BME280;72705;53.346;10.248;2024-02-28T08:08:56;102047.63;;;2.18;100.00
82931;BME280;72705;53.346;10.248;2024-02-28T08:11:21;102073.28;;;2.36;100.00
82931;BME280;72705;53.346;10.248;2024-02-28T08:13:46;102106.66;;;2.43;100.00
82931;BME280;72705;53.346;10.248;2024-02-28T08:16:12;102082.16;;;2.37;99.65
82931;BME280;72705;53.346;10.248;2024-02-28T08:18:37;101984.13;;;1.93;100.00
82931;BME280;72705;53.346;10.248;2024-02-28T08:21:03;102105.41;;;2.68;99.27
82931;BME280;72705;53.346;10.248;2024-02-28T08:23:31;102063.75;;;2.50;98.94
82931;BME280;72705;53.346;10.248;2024-02-28T08:25:57;102088.78;;;2.80;98.32
82931;BME280;72705;53.346;10.248;2024-02-28T08:28:22;102082.34;;;3.01;97.53
82931;BME280;72705;53.346;10.248;2024-02-28T08:30:48;102082.78;;;3.09;96.81
82931;BME280;72705;53.346;10.248;2024-02-28T08:33:14;102090.78;;;3.09;95.95
82931;BME280;72705;53.346;10.248;2024-02-28T08:35:39;102088.09;;;3.27;95.57
82931;BME280;72705;53.346;10.248;2024-02-28T08:38:05;102060.31;;;3.31;95.37
82931;BME280;72705;53.346;10.248;2024-02-28T08:40:34;102085.03;;;3.50;94.91
82931;BME280;72705;53.346;10.248;2024-02-28T08:42:59;102070.75;;;3.51;94.81
82931;BME280;72705;53.346;10.248;2024-02-28T08:45:25;102108.13;;;3.82;93.56
82931;BME280;72705;53.346;10.248;2024-02-28T08:47:50;102084.88;;;3.69;94.16
82931;BME280;72705;53.346;10.248;2024-02-28T08:50:16;102052.00;;;3.68;94.10
82931;BME280;72705;53.346;10.248;2024-02-28T08:52:42;102021.69;;;3.53;93.07
82931;BME280;72705;53.346;10.248;2024-02-28T08:55:09;102078.66;;;3.99;92.92
82931;BME280;72705;53.346;10.248;2024-02-28T08:57:35;102056.09;;;3.89;93.35
82931;BME280;72705;53.346;10.248;2024-02-28T09:00:00;102076.31;;;4.25;92.32
82931;BME280;72705;53.346;10.248;2024-02-28T09:02:25;102075.16;;;4.29;92.16
82931;BME280;72705;53.346;10.248;2024-02-28T09:04:51;102047.81;;;4.10;91.65
82931;BME280;72705;53.346;10.248;2024-02-28T09:07:18;102073.44;;;4.28;91.42
82931;BME280;72705;53.346;10.248;2024-02-28T09:09:46;102046.00;;;4.26;91.18
82931;BME280;72705;53.346;10.248;2024-02-28T09:12:13;102104.25;;;4.63;91.76
82931;BME280;72705;53.346;10.248;2024-02-28T09:14:38;102054.22;;;4.37;91.76
82931;BME280;72705;53.346;10.248;2024-02-28T09:17:04;102037.25;;;4.38;90.96
82931;BME280;72705;53.346;10.248;2024-02-28T09:19:31;102112.53;;;4.88;90.59
82931;BME280;72705;53.346;10.248;2024-02-28T09:21:57;102106.09;;;4.63;90.30
82931;BME280;72705;53.346;10.248;2024-02-28T09:24:23;102086.19;;;4.68;90.04
82931;BME280;72705;53.346;10.248;2024-02-28T09:26:48;102032.78;;;4.53;90.06
82931;BME280;72705;53.346;10.248;2024-02-28T09:29:14;102113.13;;;5.08;89.03
82931;BME280;72705;53.346;10.248;2024-02-28T09:31:39;102044.38;;;4.67;88.87
82931;BME280;72705;53.346;10.248;2024-02-28T09:34:04;102036.91;;;4.58;88.55
82931;BME280;72705;53.346;10.248;2024-02-28T09:36:34;102063.75;;;4.85;88.84
82931;BME280;72705;53.346;10.248;2024-02-28T09:39:06;102080.09;;;4.95;89.39
82931;BME280;72705;53.346;10.248;2024-02-28T09:41:32;102071.59;;;5.02;88.54
82931;BME280;72705;53.346;10.248;2024-02-28T09:43:57;102074.56;;;4.98;89.64
82931;BME280;72705;53.346;10.248;2024-02-28T09:46:26;102067.13;;;5.03;87.98
82931;BME280;72705;53.346;10.248;2024-02-28T09:48:52;102045.44;;;5.07;87.57
82931;BME280;72705;53.346;10.248;2024-02-28T09:51:21;102062.72;;;5.44;86.62
82931;BME280;72705;53.346;10.248;2024-02-28T09:53:49;102076.63;;;5.63;86.09
82931;BME280;72705;53.346;10.248;2024-02-28T09:56:15;102077.94;;;5.85;85.76
82931;BME280;72705;53.346;10.248;2024-02-28T09:58:42;102077.56;;;5.91;85.14
82931;BME280;72705;53.346;10.248;2024-02-28T10:01:11;102048.34;;;5.74;85.12
82931;BME280;72705;53.346;10.248;2024-02-28T10:03:37;102140.28;;;6.01;85.97
82931;BME280;72705;53.346;10.248;2024-02-28T10:06:06;102056.19;;;5.62;85.89
82931;BME280;72705;53.346;10.248;2024-02-28T10:08:33;102124.34;;;6.12;85.92
82931;BME280;72705;53.346;10.248;2024-02-28T10:11:03;102072.44;;;5.74;85.49
82931;BME280;72705;53.346;10.248;2024-02-28T10:13:35;102064.75;;;5.82;85.04
82931;BME280;72705;53.346;10.248;2024-02-28T10:16:01;102079.94;;;5.95;84.86
82931;BME280;72705;53.346;10.248;2024-02-28T10:18:31;102041.41;;;5.98;84.94
82931;BME280;72705;53.346;10.248;2024-02-28T10:20:56;102124.41;;;6.52;83.62
82931;BME280;72705;53.346;10.248;2024-02-28T10:23:23;102052.81;;;6.14;84.08
82931;BME280;72705;53.346;10.248;2024-02-28T10:25:48;102068.75;;;6.42;83.49
82931;BME280;72705;53.346;10.248;2024-02-28T10:28:14;102112.25;;;6.85;82.29
82931;BME280;72705;53.346;10.248;2024-02-28T10:30:43;102121.19;;;7.11;81.13
82931;BME280;72705;53.346;10.248;2024-02-28T10:33:15;102143.06;;;7.05;81.37
82931;BME280;72705;53.346;10.248;2024-02-28T10:35:43;102074.56;;;6.62;82.18
82931;BME280;72705;53.346;10.248;2024-02-28T10:38:11;102112.84;;;7.03;81.58
82931;BME280;72705;53.346;10.248;2024-02-28T10:40:36;102085.75;;;6.81;81.04
82931;BME280;72705;53.346;10.248;2024-02-28T10:43:02;102119.66;;;6.82;80.71
82931;BME280;72705;53.346;10.248;2024-02-28T10:45:32;102117.59;;;6.73;81.93
82931;BME280;72705;53.346;10.248;2024-02-28T10:47:57;102120.72;;;6.92;82.80
82931;BME280;72705;53.346;10.248;2024-02-28T10:50:24;102052.00;;;6.66;81.66
82931;BME280;72705;53.346;10.248;2024-02-28T10:52:51;102146.63;;;7.18;81.88
82931;BME280;72705;53.346;10.248;2024-02-28T10:55:23;102090.38;;;7.04;80.84
82931;BME280;72705;53.346;10.248;2024-02-28T10:58:02;102108.31;;;7.16;80.10
82931;BME280;72705;53.346;10.248;2024-02-28T11:00:29;102095.75;;;7.04;80.00
82931;BME280;72705;53.346;10.248;2024-02-28T11:02:56;102097.16;;;7.22;78.37
82931;BME280;72705;53.346;10.248;2024-02-28T11:05:22;102065.28;;;7.05;79.39
82931;BME280;72705;53.346;10.248;2024-02-28T11:07:52;102108.75;;;7.23;79.00
82931;BME280;72705;53.346;10.248;2024-02-28T11:10:18;102057.47;;;6.89;79.34
82931;BME280;72705;53.346;10.248;2024-02-28T11:12:43;102043.28;;;6.75;79.17
82931;BME280;72705;53.346;10.248;2024-02-28T11:15:16;102065.63;;;6.88;79.62
82931;BME280;72705;53.346;10.248;2024-02-28T11:17:42;102085.69;;;7.20;79.43
82931;BME280;72705;53.346;10.248;2024-02-28T11:20:11;102141.13;;;7.83;78.87
82931;BME280;72705;53.346;10.248;2024-02-28T11:22:39;102069.63;;;7.57;76.97
82931;BME280;72705;53.346;10.248;2024-02-28T11:25:06;102111.13;;;7.89;79.29
82931;BME280;72705;53.346;10.248;2024-02-28T11:27:31;102087.63;;;7.80;76.92
82931;BME280;72705;53.346;10.248;2024-02-28T11:29:59;102060.31;;;7.86;76.00
82931;BME280;72705;53.346;10.248;2024-02-28T11:32:25;102131.03;;;8.47;77.07
82931;BME280;72705;53.346;10.248;2024-02-28T11:34:51;102057.94;;;7.94;76.05
82931;BME280;72705;53.346;10.248;2024-02-28T11:37:18;102112.91;;;8.01;75.52
82931;BME280;72705;53.346;10.248;2024-02-28T11:39:47;102109.94;;;8.17;76.08
82931;BME280;72705;53.346;10.248;2024-02-28T11:42:16;102141.34;;;8.17;76.20
82931;BME280;72705;53.346;10.248;2024-02-28T11:44:42;102041.53;;;7.50;76.30
82931;BME280;72705;53.346;10.248;2024-02-28T11:47:11;102141.53;;;7.90;77.44
82931;BME280;72705;53.346;10.248;2024-02-28T11:49:39;102122.56;;;8.04;76.71
82931;BME280;72705;53.346;10.248;2024-02-28T11:52:05;102137.81;;;8.03;78.62
82931;BME280;72705;53.346;10.248;2024-02-28T11:54:31;102108.91;;;7.83;78.67
82931;BME280;72705;53.346;10.248;2024-02-28T11:56:56;102086.25;;;7.98;76.69
82931;BME280;72705;53.346;10.248;2024-02-28T11:59:21;102072.84;;;7.98;76.38
82931;BME280;72705;53.346;10.248;2024-02-28T12:01:47;102062.84;;;8.24;76.57
82931;BME280;72705;53.346;10.248;2024-02-28T12:04:13;102015.22;;;8.02;75.27
82931;BME280;72705;53.346;10.248;2024-02-28T12:06:40;102085.81;;;8.76;75.63
82931;BME280;72705;53.346;10.248;2024-02-28T12:09:10;102077.97;;;8.73;74.75
82931;BME280;72705;53.346;10.248;2024-02-28T12:11:37;102065.78;;;8.45;74.48
82931;BME280;72705;53.346;10.248;2024-02-28T12:14:03;102029.13;;;8.44;74.83
82931;BME280;72705;53.346;10.248;2024-02-28T12:16:34;102114.38;;;9.12;75.56
82931;BME280;72705;53.346;10.248;2024-02-28T12:19:12;102108.22;;;8.99;74.46
82931;BME280;72705;53.346;10.248;2024-02-28T12:21:39;102098.72;;;9.17;74.21
82931;BME280;72705;53.346;10.248;2024-02-28T12:24:07;102097.31;;;8.54;74.41
82931;BME280;72705;53.346;10.248;2024-02-28T12:26:32;102122.50;;;8.53;75.30
82931;BME280;72705;53.346;10.248;2024-02-28T12:28:58;102084.06;;;8.40;74.83
82931;BME280;72705;53.346;10.248;2024-02-28T12:31:23;102075.78;;;8.19;74.88
82931;BME280;72705;53.346;10.248;2024-02-28T12:33:49;102101.41;;;8.36;76.59
82931;BME280;72705;53.346;10.248;2024-02-28T12:36:14;102102.63;;;8.32;75.72
82931;BME280;72705;53.346;10.248;2024-02-28T12:38:41;102075.75;;;8.32;75.31
82931;BME280;72705;53.346;10.248;2024-02-28T12:41:06;102112.63;;;8.65;76.28